sensor_id;sensor_type;location;lat;lon;timestamp;P1;durP1;ratioP1;P2;durP2;ratioP2
11255;SDS011;5685;52.384;13.420;2022-08-04T00:02:47;12.83;;;11.93;;
11255;SDS011;5685;52.384;13.420;2022-08-04T00:06:03;13.57;;;12.57;;
11255;SDS011;5685;52.384;13.420;2022-08-04T00:09:18;13.80;;;12.90;;
11255;SDS011;5685;52.384;13.420;2022-08-04T00:12:31;13.20;;;12.40;;
11255;SDS011;5685;52.384;13.420;2022-08-04T00:15:36;13.53;;;12.37;;
11255;SDS011;5685;52.384;13.420;2022-08-04T00:18:39;13.53;;;12.73;;
11255;SDS011;5685;52.384;13.420;2022-08-04T00:21:45;13.07;;;12.13;;
11255;SDS011;5685;52.384;13.420;2022-08-04T00:24:54;13.20;;;12.20;;
11255;SDS011;5685;52.384;13.420;2022-08-04T00:27:58;13.60;;;12.60;;
11255;SDS011;5685;52.384;13.420;2022-08-04T00:31:02;13.20;;;12.30;;
11255;SDS011;5685;52.384;13.420;2022-08-04T00:34:04;12.90;;;12.10;;
11255;SDS011;5685;52.384;13.420;2022-08-04T00:37:07;14.50;;;13.40;;
11255;SDS011;5685;52.384;13.420;2022-08-04T00:40:15;12.80;;;11.90;;
11255;SDS011;5685;52.384;13.420;2022-08-04T00:43:30;13.00;;;12.20;;
11255;SDS011;5685;52.384;13.420;2022-08-04T00:46:38;13.90;;;12.80;;
11255;SDS011;5685;52.384;13.420;2022-08-04T00:49:59;13.60;;;12.50;;
11255;SDS011;5685;52.384;13.420;2022-08-04T00:53:07;14.30;;;13.20;;
11255;SDS011;5685;52.384;13.420;2022-08-04T00:56:19;15.53;;;13.80;;
11255;SDS011;5685;52.384;13.420;2022-08-04T00:59:43;14.90;;;13.80;;
11255;SDS011;5685;52.384;13.420;2022-08-04T01:03:07;15.07;;;13.77;;
11255;SDS011;5685;52.384;13.420;2022-08-04T01:06:23;14.37;;;13.37;;
11255;SDS011;5685;52.384;13.420;2022-08-04T01:09:40;13.97;;;13.07;;
11255;SDS011;5685;52.384;13.420;2022-08-04T01:13:00;14.60;;;13.67;;
11255;SDS011;5685;52.384;13.420;2022-08-04T01:16:26;15.13;;;13.47;;
11255;SDS011;5685;52.384;13.420;2022-08-04T01:19:53;14.03;;;13.03;;
11255;SDS011;5685;52.384;13.420;2022-08-04T01:26:54;14.67;;;13.67;;
11255;SDS011;5685;52.384;13.420;2022-08-04T01:30:04;14.80;;;13.90;;
11255;SDS011;5685;52.384;13.420;2022-08-04T01:33:07;14.73;;;13.67;;
11255;SDS011;5685;52.384;13.420;2022-08-04T01:36:14;14.10;;;13.20;;
11255;SDS011;5685;52.384;13.420;2022-08-04T01:39:16;15.07;;;13.90;;
11255;SDS011;5685;52.384;13.420;2022-08-04T01:42:40;14.00;;;13.10;;
11255;SDS011;5685;52.384;13.420;2022-08-04T01:45:46;13.67;;;12.77;;
11255;SDS011;5685;52.384;13.420;2022-08-04T01:48:53;14.70;;;13.40;;
11255;SDS011;5685;52.384;13.420;2022-08-04T01:51:57;15.03;;;13.87;;
11255;SDS011;5685;52.384;13.420;2022-08-04T01:55:00;14.47;;;13.37;;
11255;SDS011;5685;52.384;13.420;2022-08-04T01:58:05;14.33;;;13.43;;
11255;SDS011;5685;52.384;13.420;2022-08-04T02:01:10;15.03;;;13.93;;
11255;SDS011;5685;52.384;13.420;2022-08-04T02:04:14;14.87;;;13.80;;
11255;SDS011;5685;52.384;13.420;2022-08-04T02:07:27;14.47;;;13.57;;
11255;SDS011;5685;52.384;13.420;2022-08-04T02:10:51;14.43;;;13.40;;
11255;SDS011;5685;52.384;13.420;2022-08-04T02:14:14;14.10;;;13.10;;
11255;SDS011;5685;52.384;13.420;2022-08-04T02:17:40;15.77;;;14.33;;
11255;SDS011;5685;52.384;13.420;2022-08-04T02:20:57;15.90;;;13.93;;
11255;SDS011;5685;52.384;13.420;2022-08-04T02:24:04;15.03;;;14.03;;
11255;SDS011;5685;52.384;13.420;2022-08-04T02:27:09;14.53;;;13.40;;
11255;SDS011;5685;52.384;13.420;2022-08-04T02:30:14;14.30;;;13.30;;
11255;SDS011;5685;52.384;13.420;2022-08-04T02:33:21;14.97;;;13.87;;
11255;SDS011;5685;52.384;13.420;2022-08-04T02:36:29;15.07;;;13.97;;
11255;SDS011;5685;52.384;13.420;2022-08-04T02:39:36;14.53;;;13.33;;
11255;SDS011;5685;52.384;13.420;2022-08-04T02:42:42;14.33;;;13.33;;
11255;SDS011;5685;52.384;13.420;2022-08-04T02:45:46;14.13;;;12.93;;
11255;SDS011;5685;52.384;13.420;2022-08-04T02:48:54;15.20;;;13.80;;
11255;SDS011;5685;52.384;13.420;2022-08-04T02:51:57;14.83;;;13.60;;
11255;SDS011;5685;52.384;13.420;2022-08-04T02:55:00;14.37;;;13.37;;
11255;SDS011;5685;52.384;13.420;2022-08-04T02:58:06;14.00;;;13.20;;
11255;SDS011;5685;52.384;13.420;2022-08-04T03:01:09;14.13;;;13.23;;
11255;SDS011;5685;52.384;13.420;2022-08-04T03:04:19;14.87;;;13.77;;
11255;SDS011;5685;52.384;13.420;2022-08-04T03:07:45;14.70;;;13.50;;
11255;SDS011;5685;52.384;13.420;2022-08-04T03:11:27;14.17;;;13.27;;
11255;SDS011;5685;52.384;13.420;2022-08-04T03:15:00;15.10;;;14.00;;
11255;SDS011;5685;52.384;13.420;2022-08-04T03:23:03;14.00;;;13.00;;
11255;SDS011;5685;52.384;13.420;2022-08-04T03:30:12;14.63;;;13.60;;
11255;SDS011;5685;52.384;13.420;2022-08-04T03:40:45;15.20;;;13.87;;
11255;SDS011;5685;52.384;13.420;2022-08-04T03:44:20;15.20;;;14.07;;
11255;SDS011;5685;52.384;13.420;2022-08-04T03:48:00;14.87;;;13.60;;
11255;SDS011;5685;52.384;13.420;2022-08-04T03:51:17;15.37;;;14.17;;
11255;SDS011;5685;52.384;13.420;2022-08-04T03:59:07;15.30;;;14.27;;
11255;SDS011;5685;52.384;13.420;2022-08-04T04:06:39;15.73;;;14.63;;
11255;SDS011;5685;52.384;13.420;2022-08-04T04:10:26;15.27;;;14.07;;
11255;SDS011;5685;52.384;13.420;2022-08-04T04:14:03;14.50;;;13.43;;
11255;SDS011;5685;52.384;13.420;2022-08-04T04:28:29;16.50;;;14.60;;
11255;SDS011;5685;52.384;13.420;2022-08-04T04:32:04;15.10;;;13.87;;
11255;SDS011;5685;52.384;13.420;2022-08-04T04:35:26;16.23;;;15.13;;
11255;SDS011;5685;52.384;13.420;2022-08-04T04:38:43;16.13;;;14.70;;
11255;SDS011;5685;52.384;13.420;2022-08-04T04:42:03;15.70;;;14.23;;
11255;SDS011;5685;52.384;13.420;2022-08-04T04:45:28;16.37;;;14.57;;
11255;SDS011;5685;52.384;13.420;2022-08-04T04:48:35;14.70;;;13.40;;
11255;SDS011;5685;52.384;13.420;2022-08-04T04:51:47;15.93;;;14.70;;
11255;SDS011;5685;52.384;13.420;2022-08-04T04:54:55;15.40;;;14.27;;
11255;SDS011;5685;52.384;13.420;2022-08-04T04:58:04;14.97;;;14.07;;
11255;SDS011;5685;52.384;13.420;2022-08-04T05:01:18;14.70;;;13.60;;
11255;SDS011;5685;52.384;13.420;2022-08-04T05:08:34;16.10;;;15.00;;
11255;SDS011;5685;52.384;13.420;2022-08-04T05:12:15;15.50;;;14.20;;
11255;SDS011;5685;52.384;13.420;2022-08-04T05:15:36;17.23;;;15.70;;
11255;SDS011;5685;52.384;13.420;2022-08-04T05:18:45;15.30;;;14.27;;
11255;SDS011;5685;52.384;13.420;2022-08-04T05:21:58;15.60;;;14.40;;
11255;SDS011;5685;52.384;13.420;2022-08-04T05:25:07;15.10;;;14.10;;
11255;SDS011;5685;52.384;13.420;2022-08-04T05:28:19;16.60;;;15.33;;
11255;SDS011;5685;52.384;13.420;2022-08-04T05:31:30;21.57;;;15.60;;
11255;SDS011;5685;52.384;13.420;2022-08-04T05:34:40;16.43;;;15.27;;
11255;SDS011;5685;52.384;13.420;2022-08-04T05:37:48;16.30;;;14.97;;
11255;SDS011;5685;52.384;13.420;2022-08-04T05:40:54;15.70;;;14.50;;
11255;SDS011;5685;52.384;13.420;2022-08-04T05:43:57;15.50;;;14.40;;
11255;SDS011;5685;52.384;13.420;2022-08-04T05:47:01;16.37;;;15.17;;
11255;SDS011;5685;52.384;13.420;2022-08-04T05:50:07;15.77;;;14.67;;
11255;SDS011;5685;52.384;13.420;2022-08-04T05:53:09;15.90;;;14.70;;
11255;SDS011;5685;52.384;13.420;2022-08-04T05:56:14;15.47;;;14.27;;
11255;SDS011;5685;52.384;13.420;2022-08-04T05:59:17;14.57;;;13.23;;
11255;SDS011;5685;52.384;13.420;2022-08-04T06:02:23;15.33;;;14.23;;
11255;SDS011;5685;52.384;13.420;2022-08-04T06:05:28;14.57;;;13.30;;
11255;SDS011;5685;52.384;13.420;2022-08-04T06:08:31;15.83;;;14.33;;
11255;SDS011;5685;52.384;13.420;2022-08-04T06:11:33;14.20;;;13.30;;
11255;SDS011;5685;52.384;13.420;2022-08-04T06:14:38;15.67;;;14.47;;
11255;SDS011;5685;52.384;13.420;2022-08-04T06:17:45;15.90;;;14.50;;
11255;SDS011;5685;52.384;13.420;2022-08-04T06:20:51;14.67;;;13.77;;
11255;SDS011;5685;52.384;13.420;2022-08-04T06:23:54;14.67;;;13.60;;
11255;SDS011;5685;52.384;13.420;2022-08-04T06:26:58;15.53;;;14.10;;
11255;SDS011;5685;52.384;13.420;2022-08-04T06:30:04;15.10;;;13.80;;
11255;SDS011;5685;52.384;13.420;2022-08-04T06:33:13;15.73;;;14.30;;
11255;SDS011;5685;52.384;13.420;2022-08-04T06:36:28;14.90;;;13.63;;
11255;SDS011;5685;52.384;13.420;2022-08-04T06:39:32;14.70;;;13.57;;
11255;SDS011;5685;52.384;13.420;2022-08-04T06:42:35;15.27;;;14.07;;
11255;SDS011;5685;52.384;13.420;2022-08-04T06:45:38;14.33;;;13.33;;
11255;SDS011;5685;52.384;13.420;2022-08-04T06:48:43;15.00;;;13.83;;
11255;SDS011;5685;52.384;13.420;2022-08-04T06:51:48;16.70;;;14.03;;
11255;SDS011;5685;52.384;13.420;2022-08-04T06:54:52;15.03;;;13.77;;
11255;SDS011;5685;52.384;13.420;2022-08-04T06:57:54;14.97;;;13.90;;
11255;SDS011;5685;52.384;13.420;2022-08-04T07:00:58;15.60;;;14.30;;
11255;SDS011;5685;52.384;13.420;2022-08-04T07:04:02;15.67;;;14.20;;
11255;SDS011;5685;52.384;13.420;2022-08-04T07:07:06;14.33;;;13.43;;
11255;SDS011;5685;52.384;13.420;2022-08-04T07:10:09;14.83;;;13.73;;
11255;SDS011;5685;52.384;13.420;2022-08-04T07:13:12;14.20;;;13.30;;
11255;SDS011;5685;52.384;13.420;2022-08-04T07:16:15;15.20;;;14.00;;
11255;SDS011;5685;52.384;13.420;2022-08-04T07:19:18;13.90;;;13.00;;
11255;SDS011;5685;52.384;13.420;2022-08-04T07:22:22;14.83;;;13.80;;
11255;SDS011;5685;52.384;13.420;2022-08-04T07:25:26;13.87;;;13.00;;
11255;SDS011;5685;52.384;13.420;2022-08-04T07:28:29;14.37;;;13.23;;
11255;SDS011;5685;52.384;13.420;2022-08-04T07:31:32;13.80;;;12.90;;
11255;SDS011;5685;52.384;13.420;2022-08-04T07:34:35;14.20;;;13.30;;
11255;SDS011;5685;52.384;13.420;2022-08-04T07:37:40;13.40;;;12.60;;
11255;SDS011;5685;52.384;13.420;2022-08-04T07:40:43;14.53;;;13.40;;
11255;SDS011;5685;52.384;13.420;2022-08-04T07:43:47;13.83;;;12.93;;
11255;SDS011;5685;52.384;13.420;2022-08-04T07:46:49;14.07;;;13.17;;
11255;SDS011;5685;52.384;13.420;2022-08-04T07:49:52;13.50;;;12.70;;
11255;SDS011;5685;52.384;13.420;2022-08-04T07:52:56;13.77;;;12.87;;
11255;SDS011;5685;52.384;13.420;2022-08-04T07:55:58;12.77;;;11.97;;
11255;SDS011;5685;52.384;13.420;2022-08-04T07:59:02;14.37;;;13.37;;
11255;SDS011;5685;52.384;13.420;2022-08-04T08:02:05;13.80;;;12.87;;
11255;SDS011;5685;52.384;13.420;2022-08-04T08:05:08;13.43;;;12.57;;
11255;SDS011;5685;52.384;13.420;2022-08-04T08:08:15;12.80;;;12.00;;
11255;SDS011;5685;52.384;13.420;2022-08-04T08:11:20;13.53;;;12.63;;
11255;SDS011;5685;52.384;13.420;2022-08-04T08:14:22;14.47;;;13.47;;
11255;SDS011;5685;52.384;13.420;2022-08-04T08:17:25;12.97;;;12.17;;
11255;SDS011;5685;52.384;13.420;2022-08-04T08:20:28;13.07;;;12.37;;
11255;SDS011;5685;52.384;13.420;2022-08-04T08:23:34;13.53;;;12.73;;
11255;SDS011;5685;52.384;13.420;2022-08-04T08:26:36;13.43;;;12.63;;
11255;SDS011;5685;52.384;13.420;2022-08-04T08:29:41;13.67;;;12.77;;
11255;SDS011;5685;52.384;13.420;2022-08-04T08:32:45;13.57;;;12.67;;
11255;SDS011;5685;52.384;13.420;2022-08-04T08:35:48;13.37;;;12.37;;
11255;SDS011;5685;52.384;13.420;2022-08-04T08:39:00;13.93;;;13.03;;
11255;SDS011;5685;52.384;13.420;2022-08-04T08:42:13;14.10;;;12.93;;
11255;SDS011;5685;52.384;13.420;2022-08-04T08:45:54;12.97;;;12.27;;
11255;SDS011;5685;52.384;13.420;2022-08-04T08:49:39;12.87;;;12.03;;
11255;SDS011;5685;52.384;13.420;2022-08-04T08:53:12;12.63;;;11.87;;
11255;SDS011;5685;52.384;13.420;2022-08-04T08:56:48;13.00;;;12.20;;
11255;SDS011;5685;52.384;13.420;2022-08-04T09:00:03;13.00;;;12.23;;
11255;SDS011;5685;52.384;13.420;2022-08-04T09:03:30;12.63;;;11.93;;
11255;SDS011;5685;52.384;13.420;2022-08-04T09:06:53;13.70;;;12.90;;
11255;SDS011;5685;52.384;13.420;2022-08-04T09:10:14;13.13;;;12.33;;
11255;SDS011;5685;52.384;13.420;2022-08-04T09:13:23;13.77;;;12.97;;
11255;SDS011;5685;52.384;13.420;2022-08-04T09:16:34;13.10;;;12.10;;
11255;SDS011;5685;52.384;13.420;2022-08-04T09:19:41;12.53;;;11.73;;
11255;SDS011;5685;52.384;13.420;2022-08-04T09:22:53;13.07;;;12.37;;
11255;SDS011;5685;52.384;13.420;2022-08-04T09:26:10;12.37;;;11.47;;
11255;SDS011;5685;52.384;13.420;2022-08-04T09:29:26;13.40;;;12.30;;
11255;SDS011;5685;52.384;13.420;2022-08-04T09:32:40;12.83;;;12.10;;
11255;SDS011;5685;52.384;13.420;2022-08-04T09:35:58;13.30;;;12.60;;
11255;SDS011;5685;52.384;13.420;2022-08-04T09:39:08;11.63;;;10.93;;
11255;SDS011;5685;52.384;13.420;2022-08-04T09:42:22;12.37;;;11.60;;
11255;SDS011;5685;52.384;13.420;2022-08-04T09:45:40;12.63;;;11.83;;
11255;SDS011;5685;52.384;13.420;2022-08-04T09:48:50;12.47;;;11.77;;
11255;SDS011;5685;52.384;13.420;2022-08-04T09:52:00;12.67;;;11.97;;
11255;SDS011;5685;52.384;13.420;2022-08-04T09:55:11;13.63;;;12.87;;
11255;SDS011;5685;52.384;13.420;2022-08-04T09:58:36;13.33;;;12.50;;
11255;SDS011;5685;52.384;13.420;2022-08-04T10:01:49;13.80;;;12.90;;
11255;SDS011;5685;52.384;13.420;2022-08-04T10:04:58;12.67;;;11.97;;
11255;SDS011;5685;52.384;13.420;2022-08-04T10:08:09;12.60;;;11.90;;
11255;SDS011;5685;52.384;13.420;2022-08-04T10:11:29;12.10;;;11.40;;
11255;SDS011;5685;52.384;13.420;2022-08-04T10:14:45;12.03;;;11.43;;
11255;SDS011;5685;52.384;13.420;2022-08-04T10:18:13;12.90;;;12.10;;
11255;SDS011;5685;52.384;13.420;2022-08-04T10:21:29;12.97;;;11.70;;
11255;SDS011;5685;52.384;13.420;2022-08-04T10:24:46;11.60;;;11.00;;
11255;SDS011;5685;52.384;13.420;2022-08-04T10:27:59;12.00;;;11.40;;
11255;SDS011;5685;52.384;13.420;2022-08-04T10:31:08;11.87;;;11.17;;
11255;SDS011;5685;52.384;13.420;2022-08-04T10:34:18;12.07;;;11.37;;
11255;SDS011;5685;52.384;13.420;2022-08-04T10:37:23;12.97;;;12.27;;
11255;SDS011;5685;52.384;13.420;2022-08-04T10:40:31;12.63;;;11.93;;
11255;SDS011;5685;52.384;13.420;2022-08-04T10:43:41;11.73;;;11.07;;
11255;SDS011;5685;52.384;13.420;2022-08-04T10:46:54;12.33;;;11.63;;
11255;SDS011;5685;52.384;13.420;2022-08-04T10:50:04;11.53;;;10.83;;
11255;SDS011;5685;52.384;13.420;2022-08-04T10:53:12;11.80;;;11.13;;
11255;SDS011;5685;52.384;13.420;2022-08-04T10:56:21;11.43;;;10.83;;
11255;SDS011;5685;52.384;13.420;2022-08-04T10:59:33;12.03;;;11.40;;
11255;SDS011;5685;52.384;13.420;2022-08-04T11:02:45;11.83;;;11.13;;
11255;SDS011;5685;52.384;13.420;2022-08-04T11:05:56;13.43;;;12.53;;
11255;SDS011;5685;52.384;13.420;2022-08-04T11:09:02;13.73;;;12.83;;
11255;SDS011;5685;52.384;13.420;2022-08-04T11:12:06;12.87;;;11.97;;
11255;SDS011;5685;52.384;13.420;2022-08-04T11:15:20;14.67;;;13.73;;
11255;SDS011;5685;52.384;13.420;2022-08-04T11:18:29;14.10;;;13.10;;
11255;SDS011;5685;52.384;13.420;2022-08-04T11:21:42;14.63;;;13.43;;
11255;SDS011;5685;52.384;13.420;2022-08-04T11:24:51;12.50;;;11.70;;
11255;SDS011;5685;52.384;13.420;2022-08-04T11:28:00;13.10;;;12.23;;
11255;SDS011;5685;52.384;13.420;2022-08-04T11:31:10;12.60;;;11.80;;
11255;SDS011;5685;52.384;13.420;2022-08-04T11:34:20;13.17;;;12.33;;
11255;SDS011;5685;52.384;13.420;2022-08-04T11:37:26;13.13;;;12.23;;
11255;SDS011;5685;52.384;13.420;2022-08-04T11:40:42;13.80;;;12.80;;
11255;SDS011;5685;52.384;13.420;2022-08-04T11:43:48;13.43;;;12.57;;
11255;SDS011;5685;52.384;13.420;2022-08-04T11:46:58;13.40;;;12.50;;
11255;SDS011;5685;52.384;13.420;2022-08-04T11:50:07;12.87;;;11.87;;
11255;SDS011;5685;52.384;13.420;2022-08-04T11:53:15;12.70;;;11.80;;
11255;SDS011;5685;52.384;13.420;2022-08-04T11:56:23;12.83;;;12.03;;
11255;SDS011;5685;52.384;13.420;2022-08-04T11:59:26;13.27;;;12.47;;
11255;SDS011;5685;52.384;13.420;2022-08-04T12:02:40;12.77;;;12.00;;
11255;SDS011;5685;52.384;13.420;2022-08-04T12:06:09;13.27;;;12.47;;
11255;SDS011;5685;52.384;13.420;2022-08-04T12:09:21;12.70;;;11.90;;
11255;SDS011;5685;52.384;13.420;2022-08-04T12:12:36;12.93;;;12.13;;
11255;SDS011;5685;52.384;13.420;2022-08-04T12:15:48;13.17;;;12.37;;
11255;SDS011;5685;52.384;13.420;2022-08-04T12:19:00;13.33;;;12.40;;
11255;SDS011;5685;52.384;13.420;2022-08-04T12:22:09;13.23;;;12.43;;
11255;SDS011;5685;52.384;13.420;2022-08-04T12:25:18;13.33;;;12.53;;
11255;SDS011;5685;52.384;13.420;2022-08-04T12:28:30;12.90;;;12.10;;
11255;SDS011;5685;52.384;13.420;2022-08-04T12:31:39;13.10;;;12.30;;
11255;SDS011;5685;52.384;13.420;2022-08-04T12:34:48;12.83;;;12.03;;
11255;SDS011;5685;52.384;13.420;2022-08-04T12:38:02;12.77;;;11.97;;
11255;SDS011;5685;52.384;13.420;2022-08-04T12:41:08;12.80;;;12.07;;
11255;SDS011;5685;52.384;13.420;2022-08-04T12:44:12;12.80;;;12.00;;
11255;SDS011;5685;52.384;13.420;2022-08-04T12:47:15;12.30;;;11.37;;
11255;SDS011;5685;52.384;13.420;2022-08-04T12:50:18;12.07;;;11.37;;
11255;SDS011;5685;52.384;13.420;2022-08-04T12:53:25;12.57;;;11.80;;
11255;SDS011;5685;52.384;13.420;2022-08-04T12:56:33;12.93;;;12.03;;
11255;SDS011;5685;52.384;13.420;2022-08-04T12:59:37;13.23;;;12.50;;
11255;SDS011;5685;52.384;13.420;2022-08-04T13:02:40;12.17;;;11.47;;
11255;SDS011;5685;52.384;13.420;2022-08-04T13:05:45;11.70;;;10.97;;
11255;SDS011;5685;52.384;13.420;2022-08-04T13:08:49;11.97;;;11.27;;
11255;SDS011;5685;52.384;13.420;2022-08-04T13:11:54;12.27;;;11.57;;
11255;SDS011;5685;52.384;13.420;2022-08-04T13:15:05;12.00;;;11.27;;
11255;SDS011;5685;52.384;13.420;2022-08-04T13:18:13;12.57;;;11.87;;
11255;SDS011;5685;52.384;13.420;2022-08-04T13:21:16;11.67;;;10.97;;
11255;SDS011;5685;52.384;13.420;2022-08-04T13:24:20;11.43;;;10.73;;
11255;SDS011;5685;52.384;13.420;2022-08-04T13:27:25;11.63;;;10.93;;
11255;SDS011;5685;52.384;13.420;2022-08-04T13:30:29;12.53;;;11.83;;
11255;SDS011;5685;52.384;13.420;2022-08-04T13:33:34;12.87;;;12.07;;
11255;SDS011;5685;52.384;13.420;2022-08-04T13:36:38;11.90;;;11.20;;
11255;SDS011;5685;52.384;13.420;2022-08-04T13:39:43;12.13;;;11.33;;
11255;SDS011;5685;52.384;13.420;2022-08-04T13:42:48;12.10;;;11.30;;
11255;SDS011;5685;52.384;13.420;2022-08-04T13:45:57;11.47;;;10.87;;
11255;SDS011;5685;52.384;13.420;2022-08-04T13:49:02;11.00;;;10.37;;
11255;SDS011;5685;52.384;13.420;2022-08-04T13:52:11;11.90;;;11.30;;
11255;SDS011;5685;52.384;13.420;2022-08-04T13:55:20;11.23;;;10.53;;
11255;SDS011;5685;52.384;13.420;2022-08-04T13:58:28;11.87;;;11.17;;
11255;SDS011;5685;52.384;13.420;2022-08-04T14:01:33;11.53;;;10.93;;
11255;SDS011;5685;52.384;13.420;2022-08-04T14:04:39;10.77;;;10.10;;
11255;SDS011;5685;52.384;13.420;2022-08-04T14:07:54;11.40;;;10.80;;
11255;SDS011;5685;52.384;13.420;2022-08-04T14:11:01;11.20;;;10.53;;
11255;SDS011;5685;52.384;13.420;2022-08-04T14:14:19;11.23;;;10.63;;
11255;SDS011;5685;52.384;13.420;2022-08-04T14:17:24;10.90;;;10.30;;
11255;SDS011;5685;52.384;13.420;2022-08-04T14:20:26;12.47;;;11.77;;
11255;SDS011;5685;52.384;13.420;2022-08-04T14:23:37;11.30;;;10.70;;
11255;SDS011;5685;52.384;13.420;2022-08-04T14:26:48;11.70;;;11.10;;
11255;SDS011;5685;52.384;13.420;2022-08-04T14:29:52;11.23;;;10.63;;
11255;SDS011;5685;52.384;13.420;2022-08-04T14:32:58;11.07;;;10.47;;
11255;SDS011;5685;52.384;13.420;2022-08-04T14:36:04;10.97;;;10.37;;
11255;SDS011;5685;52.384;13.420;2022-08-04T14:39:07;10.90;;;10.30;;
11255;SDS011;5685;52.384;13.420;2022-08-04T14:42:11;10.90;;;10.30;;
11255;SDS011;5685;52.384;13.420;2022-08-04T14:45:15;11.80;;;11.10;;
11255;SDS011;5685;52.384;13.420;2022-08-04T14:48:17;11.37;;;10.77;;
11255;SDS011;5685;52.384;13.420;2022-08-04T14:51:20;11.47;;;10.87;;
11255;SDS011;5685;52.384;13.420;2022-08-04T14:54:26;10.60;;;10.07;;
11255;SDS011;5685;52.384;13.420;2022-08-04T14:57:31;11.13;;;10.43;;
11255;SDS011;5685;52.384;13.420;2022-08-04T15:00:38;10.97;;;10.37;;
11255;SDS011;5685;52.384;13.420;2022-08-04T15:03:41;10.63;;;10.03;;
11255;SDS011;5685;52.384;13.420;2022-08-04T15:06:46;11.20;;;10.57;;
11255;SDS011;5685;52.384;13.420;2022-08-04T15:09:48;10.93;;;10.33;;
11255;SDS011;5685;52.384;13.420;2022-08-04T15:15:56;10.90;;;10.30;;
11255;SDS011;5685;52.384;13.420;2022-08-04T15:18:59;10.77;;;10.27;;
11255;SDS011;5685;52.384;13.420;2022-08-04T15:22:01;11.40;;;10.80;;
11255;SDS011;5685;52.384;13.420;2022-08-04T15:25:04;11.33;;;10.63;;
11255;SDS011;5685;52.384;13.420;2022-08-04T15:28:09;10.53;;;10.03;;
11255;SDS011;5685;52.384;13.420;2022-08-04T15:31:17;11.03;;;10.43;;
11255;SDS011;5685;52.384;13.420;2022-08-04T15:34:21;11.37;;;10.67;;
11255;SDS011;5685;52.384;13.420;2022-08-04T15:37:24;11.00;;;10.40;;
11255;SDS011;5685;52.384;13.420;2022-08-04T15:40:42;11.30;;;10.70;;
11255;SDS011;5685;52.384;13.420;2022-08-04T15:43:53;10.87;;;10.27;;
11255;SDS011;5685;52.384;13.420;2022-08-04T15:47:17;11.03;;;10.43;;
11255;SDS011;5685;52.384;13.420;2022-08-04T15:50:19;10.50;;;9.90;;
11255;SDS011;5685;52.384;13.420;2022-08-04T15:53:21;10.77;;;10.17;;
11255;SDS011;5685;52.384;13.420;2022-08-04T15:56:42;10.53;;;9.93;;
11255;SDS011;5685;52.384;13.420;2022-08-04T15:59:56;10.40;;;9.70;;
11255;SDS011;5685;52.384;13.420;2022-08-04T16:03:02;10.60;;;10.00;;
11255;SDS011;5685;52.384;13.420;2022-08-04T16:06:40;10.83;;;10.27;;
11255;SDS011;5685;52.384;13.420;2022-08-04T16:09:45;10.93;;;10.33;;
11255;SDS011;5685;52.384;13.420;2022-08-04T16:12:54;10.90;;;10.30;;
11255;SDS011;5685;52.384;13.420;2022-08-04T16:15:58;9.90;;;9.40;;
11255;SDS011;5685;52.384;13.420;2022-08-04T16:19:04;10.80;;;10.20;;
11255;SDS011;5685;52.384;13.420;2022-08-04T16:22:07;10.33;;;9.77;;
11255;SDS011;5685;52.384;13.420;2022-08-04T16:25:13;11.53;;;10.93;;
11255;SDS011;5685;52.384;13.420;2022-08-04T16:31:40;11.07;;;10.47;;
11255;SDS011;5685;52.384;13.420;2022-08-04T16:35:22;10.63;;;10.13;;
11255;SDS011;5685;52.384;13.420;2022-08-04T16:38:28;10.67;;;10.13;;
11255;SDS011;5685;52.384;13.420;2022-08-04T16:41:39;10.53;;;9.93;;
11255;SDS011;5685;52.384;13.420;2022-08-04T16:44:42;11.43;;;10.83;;
11255;SDS011;5685;52.384;13.420;2022-08-04T16:47:59;10.83;;;10.23;;
11255;SDS011;5685;52.384;13.420;2022-08-04T16:51:06;10.20;;;9.70;;
11255;SDS011;5685;52.384;13.420;2022-08-04T16:54:09;10.10;;;9.60;;
11255;SDS011;5685;52.384;13.420;2022-08-04T16:57:11;10.13;;;9.63;;
11255;SDS011;5685;52.384;13.420;2022-08-04T17:00:15;10.03;;;9.53;;
11255;SDS011;5685;52.384;13.420;2022-08-04T17:03:18;10.20;;;9.70;;
11255;SDS011;5685;52.384;13.420;2022-08-04T17:06:21;10.53;;;9.97;;
11255;SDS011;5685;52.384;13.420;2022-08-04T17:09:23;11.80;;;10.90;;
11255;SDS011;5685;52.384;13.420;2022-08-04T17:12:27;10.70;;;10.10;;
11255;SDS011;5685;52.384;13.420;2022-08-04T17:15:29;10.43;;;9.93;;
11255;SDS011;5685;52.384;13.420;2022-08-04T17:18:32;10.57;;;9.93;;
11255;SDS011;5685;52.384;13.420;2022-08-04T17:21:38;10.37;;;9.87;;
11255;SDS011;5685;52.384;13.420;2022-08-04T17:24:40;9.87;;;9.37;;
11255;SDS011;5685;52.384;13.420;2022-08-04T17:27:43;10.27;;;9.67;;
11255;SDS011;5685;52.384;13.420;2022-08-04T17:30:45;10.63;;;10.10;;
11255;SDS011;5685;52.384;13.420;2022-08-04T17:33:48;9.80;;;9.30;;
11255;SDS011;5685;52.384;13.420;2022-08-04T17:36:54;9.47;;;8.97;;
11255;SDS011;5685;52.384;13.420;2022-08-04T17:40:06;10.23;;;9.73;;
11255;SDS011;5685;52.384;13.420;2022-08-04T17:43:10;10.10;;;9.60;;
11255;SDS011;5685;52.384;13.420;2022-08-04T17:46:13;9.80;;;9.30;;
11255;SDS011;5685;52.384;13.420;2022-08-04T17:49:23;10.43;;;9.87;;
11255;SDS011;5685;52.384;13.420;2022-08-04T17:52:27;9.80;;;9.30;;
11255;SDS011;5685;52.384;13.420;2022-08-04T17:55:39;10.87;;;10.20;;
11255;SDS011;5685;52.384;13.420;2022-08-04T17:58:43;9.80;;;9.30;;
11255;SDS011;5685;52.384;13.420;2022-08-04T18:01:52;10.27;;;9.77;;
11255;SDS011;5685;52.384;13.420;2022-08-04T18:04:57;9.70;;;9.20;;
11255;SDS011;5685;52.384;13.420;2022-08-04T18:08:06;9.43;;;8.93;;
11255;SDS011;5685;52.384;13.420;2022-08-04T18:11:17;10.77;;;10.17;;
11255;SDS011;5685;52.384;13.420;2022-08-04T18:14:19;9.90;;;9.40;;
11255;SDS011;5685;52.384;13.420;2022-08-04T18:17:31;9.70;;;9.20;;
11255;SDS011;5685;52.384;13.420;2022-08-04T18:20:36;10.20;;;9.40;;
11255;SDS011;5685;52.384;13.420;2022-08-04T18:23:39;9.93;;;9.23;;
11255;SDS011;5685;52.384;13.420;2022-08-04T18:26:42;9.77;;;9.27;;
11255;SDS011;5685;52.384;13.420;2022-08-04T18:29:44;10.40;;;9.83;;
11255;SDS011;5685;52.384;13.420;2022-08-04T18:32:46;9.67;;;9.07;;
11255;SDS011;5685;52.384;13.420;2022-08-04T18:35:49;9.70;;;9.03;;
11255;SDS011;5685;52.384;13.420;2022-08-04T18:38:53;10.53;;;10.00;;
11255;SDS011;5685;52.384;13.420;2022-08-04T18:41:55;10.03;;;9.53;;
11255;SDS011;5685;52.384;13.420;2022-08-04T18:44:58;9.83;;;9.33;;
11255;SDS011;5685;52.384;13.420;2022-08-04T18:48:00;10.80;;;10.20;;
11255;SDS011;5685;52.384;13.420;2022-08-04T18:51:03;10.50;;;10.00;;
11255;SDS011;5685;52.384;13.420;2022-08-04T18:54:07;10.00;;;9.40;;
11255;SDS011;5685;52.384;13.420;2022-08-04T18:57:10;9.83;;;9.23;;
11255;SDS011;5685;52.384;13.420;2022-08-04T19:00:12;10.13;;;9.63;;
11255;SDS011;5685;52.384;13.420;2022-08-04T19:03:15;10.37;;;9.87;;
11255;SDS011;5685;52.384;13.420;2022-08-04T19:06:17;11.50;;;10.80;;
11255;SDS011;5685;52.384;13.420;2022-08-04T19:09:21;10.53;;;10.00;;
11255;SDS011;5685;52.384;13.420;2022-08-04T19:12:24;10.47;;;9.87;;
11255;SDS011;5685;52.384;13.420;2022-08-04T19:15:26;9.60;;;9.10;;
11255;SDS011;5685;52.384;13.420;2022-08-04T19:18:30;9.97;;;9.47;;
11255;SDS011;5685;52.384;13.420;2022-08-04T19:21:32;9.53;;;8.93;;